Time;durP1;ratioP1;P1;durP2;ratioP2;P2;SDS_P1;SDS_P2;PMS_P1;PMS_P2;Temp;Humidity;BMP_temperature;BMP_pressure;BME280_temperature;BME280_humidity;BME280_pressure;Samples;Min_cycle;Max_cycle;Signal;HPM_P1;HPM_P2
2023/09/25 00:00:23;;;;;;;3.33;1.60;;;16.00;80.20;;;;;;5058296;28;20029;-75
2023/09/25 00:02:49;;;;;;;3.88;1.58;;;16.00;80.30;;;;;;5075673;28;20021;-75
2023/09/25 00:05:16;;;;;;;2.17;1.40;;;16.00;80.10;;;;;;5075571;28;20033;-76
2023/09/25 00:07:42;;;;;;;4.35;1.50;;;16.00;80.50;;;;;;5041515;28;20029;-75
2023/09/25 00:10:08;;;;;;;3.70;1.70;;;15.90;80.30;;;;;;5041455;28;20027;-75
2023/09/25 00:12:33;;;;;;;2.33;1.50;;;15.90;80.30;;;;;;5041316;28;20120;-75
2023/09/25 00:14:59;;;;;;;3.05;1.63;;;15.90;80.40;;;;;;5041199;28;20025;-76
2023/09/25 00:17:24;;;;;;;4.18;2.00;;;15.90;80.70;;;;;;5057979;28;20033;-75
2023/09/25 00:19:50;;;;;;;2.22;1.67;;;16.00;81.00;;;;;;5041115;28;20036;-75
2023/09/25 00:22:15;;;;;;;4.15;2.00;;;15.90;81.00;;;;;;5057594;28;20055;-75
2023/09/25 00:24:41;;;;;;;2.95;1.45;;;15.90;80.40;;;;;;5057748;28;20104;-75
2023/09/25 00:27:06;;;;;;;3.78;1.67;;;15.90;80.50;;;;;;5041074;28;20048;-75
2023/09/25 00:29:32;;;;;;;2.10;1.42;;;15.90;80.70;;;;;;5057507;28;20044;-75
2023/09/25 00:31:59;;;;;;;3.30;1.45;;;15.90;80.70;;;;;;5040822;28;20055;-75
2023/09/25 00:34:24;;;;;;;2.13;1.40;;;15.90;81.80;;;;;;5057438;28;20381;-75
2023/09/25 00:36:50;;;;;;;2.72;1.90;;;15.90;81.20;;;;;;5074979;28;20074;-75
2023/09/25 00:39:15;;;;;;;3.13;1.60;;;15.90;81.20;;;;;;5040748;28;20025;-75
2023/09/25 00:41:41;;;;;;;2.95;1.67;;;15.90;81.10;;;;;;5040690;28;20032;-75
2023/09/25 00:44:06;;;;;;;2.80;1.95;;;15.80;80.90;;;;;;5057255;28;20128;-76
2023/09/25 00:46:32;;;;;;;2.60;1.80;;;15.80;81.10;;;;;;5074732;28;20039;-75
2023/09/25 00:48:59;;;;;;;5.30;1.95;;;15.70;81.00;;;;;;5057265;28;20029;-75
2023/09/25 00:51:25;;;;;;;4.20;2.00;;;15.70;81.10;;;;;;5057000;28;20047;-75
2023/09/25 00:53:52;;;;;;;3.30;2.03;;;15.80;80.60;;;;;;5040365;28;20041;-74
2023/09/25 00:56:18;;;;;;;3.97;1.88;;;15.60;80.70;;;;;;5057083;28;20032;-76
2023/09/25 00:58:44;;;;;;;5.05;2.00;;;15.70;81.00;;;;;;5040487;28;20028;-76
2023/09/25 01:01:11;;;;;;;3.28;2.00;;;15.70;81.10;;;;;;5074446;28;20029;-75
2023/09/25 01:03:36;;;;;;;3.65;1.90;;;15.60;80.90;;;;;;5040483;28;20029;-75
2023/09/25 01:06:04;;;;;;;4.10;1.70;;;15.60;81.20;;;;;;5056563;28;20060;-74
2023/09/25 01:08:30;;;;;;;4.72;1.83;;;15.60;81.10;;;;;;5074227;28;20033;-76
2023/09/25 01:10:56;;;;;;;2.67;1.77;;;15.60;81.10;;;;;;5074218;28;20067;-75
2023/09/25 01:13:21;;;;;;;5.15;2.22;;;15.50;81.00;;;;;;5074208;28;20072;-76
2023/09/25 01:15:47;;;;;;;3.15;1.92;;;15.50;80.50;;;;;;5040045;28;20021;-75
2023/09/25 01:18:13;;;;;;;3.80;1.70;;;15.50;80.70;;;;;;5040094;28;20496;-76
2023/09/25 01:20:38;;;;;;;4.43;2.20;;;15.50;81.00;;;;;;5056572;28;20044;-75
2023/09/25 01:23:04;;;;;;;3.65;1.80;;;15.50;81.00;;;;;;5056384;28;20025;-76
2023/09/25 01:25:30;;;;;;;3.15;1.80;;;15.50;81.20;;;;;;5074052;28;20100;-75
2023/09/25 01:27:55;;;;;;;4.45;2.00;;;15.40;81.00;;;;;;5040146;28;20022;-76
2023/09/25 01:30:21;;;;;;;2.70;1.63;;;15.40;80.90;;;;;;5056332;28;20415;-75
2023/09/25 01:32:49;;;;;;;2.42;1.73;;;15.40;81.30;;;;;;5073805;28;20032;-75
2023/09/25 01:35:16;;;;;;;2.55;1.85;;;15.40;81.50;;;;;;5056603;28;20112;-76
2023/09/25 01:37:42;;;;;;;2.85;1.83;;;15.40;81.40;;;;;;5056137;28;20035;-75
2023/09/25 01:40:12;;;;;;;5.57;2.00;;;15.40;81.20;;;;;;5056239;28;20033;-75
2023/09/25 01:42:37;;;;;;;3.63;2.00;;;15.40;81.20;;;;;;5040140;28;20128;-75
2023/09/25 01:45:03;;;;;;;4.40;1.90;;;15.40;81.10;;;;;;5039533;28;20025;-75
2023/09/25 01:47:29;;;;;;;2.33;1.70;;;15.30;80.80;;;;;;5073638;28;20029;-75
2023/09/25 01:49:55;;;;;;;3.28;1.70;;;15.30;81.40;;;;;;5056082;28;20021;-75
2023/09/25 01:52:21;;;;;;;3.65;1.80;;;15.30;81.60;;;;;;5073289;28;20021;-75
2023/09/25 01:54:47;;;;;;;4.82;2.10;;;15.30;81.70;;;;;;5039423;28;20025;-75
2023/09/25 01:57:13;;;;;;;3.92;1.98;;;15.30;81.50;;;;;;5039423;28;20029;-76
2023/09/25 01:59:38;;;;;;;10.48;2.50;;;15.30;81.20;;;;;;5055973;28;20089;-75
2023/09/25 02:02:04;;;;;;;3.80;1.55;;;15.30;81.30;;;;;;5073567;28;20029;-75
2023/09/25 02:04:30;;;;;;;4.28;2.00;;;15.20;81.50;;;;;;5055840;28;20041;-75
2023/09/25 02:06:55;;;;;;;3.85;1.90;;;15.20;81.50;;;;;;5055777;28;20021;-75
2023/09/25 02:09:21;;;;;;;3.95;1.80;;;15.20;80.90;;;;;;5055845;28;20032;-75
2023/09/25 02:11:46;;;;;;;3.60;1.90;;;15.10;81.20;;;;;;5055625;28;20419;-75
2023/09/25 02:14:12;;;;;;;3.20;1.98;;;15.00;81.30;;;;;;5055773;28;20038;-75
2023/09/25 02:16:38;;;;;;;4.20;1.95;;;15.10;82.40;;;;;;5055685;28;20029;-75
2023/09/25 02:19:03;;;;;;;3.88;1.90;;;15.10;82.50;;;;;;5038319;28;20040;-75
2023/09/25 02:21:29;;;;;;;3.15;2.08;;;15.10;81.90;;;;;;5055847;28;20029;-75
2023/09/25 02:23:55;;;;;;;4.72;2.05;;;15.10;82.00;;;;;;5055615;28;20500;-75
2023/09/25 02:26:20;;;;;;;3.20;1.75;;;15.10;82.00;;;;;;5055489;28;20032;-75
2023/09/25 02:28:46;;;;;;;3.50;1.90;;;15.10;81.70;;;;;;5055590;28;20029;-75
2023/09/25 02:31:13;;;;;;;3.10;1.88;;;15.10;81.70;;;;;;5055399;28;20037;-76
2023/09/25 02:33:39;;;;;;;3.58;1.75;;;15.10;81.50;;;;;;5073007;28;20017;-76
2023/09/25 02:36:11;;;;;;;2.53;1.67;;;15.00;81.20;;;;;;5055523;28;20039;-76
2023/09/25 02:38:36;;;;;;;3.90;1.75;;;15.00;81.50;;;;;;5055464;28;20025;-75
2023/09/25 02:41:02;;;;;;;3.97;1.88;;;14.90;81.70;;;;;;5055351;28;20025;-75
2023/09/25 02:43:28;;;;;;;4.35;1.85;;;14.90;81.90;;;;;;5055517;28;20093;-76
2023/09/25 02:45:54;;;;;;;3.78;1.98;;;15.00;81.80;;;;;;5072987;28;20021;-76
2023/09/25 02:48:21;;;;;;;5.97;1.95;;;14.90;81.80;;;;;;5055494;28;20036;-75
2023/09/25 02:50:47;;;;;;;5.32;1.98;;;14.90;81.90;;;;;;5055366;28;20021;-75
2023/09/25 02:53:13;;;;;;;4.18;1.80;;;14.80;81.80;;;;;;5055059;28;20040;-75
2023/09/25 02:55:38;;;;;;;3.33;2.00;;;14.80;82.10;;;;;;5055438;28;20522;-76
2023/09/25 02:58:04;;;;;;;2.53;1.73;;;14.80;81.70;;;;;;5072890;28;20064;-75
2023/09/25 03:00:30;;;;;;;2.47;1.73;;;14.80;81.70;;;;;;5038750;28;20025;-76
2023/09/25 03:02:57;;;;;;;3.83;1.70;;;14.70;82.00;;;;;;5072816;28;20032;-75
2023/09/25 03:05:24;;;;;;;5.47;1.50;;;14.80;82.20;;;;;;5072810;28;20032;-75
2023/09/25 03:07:50;;;;;;;3.50;1.85;;;14.70;82.10;;;;;;5072788;28;20029;-76
2023/09/25 03:10:15;;;;;;;2.78;1.98;;;14.70;82.20;;;;;;5055218;28;20031;-75
2023/09/25 03:12:41;;;;;;;2.75;1.70;;;14.70;82.30;;;;;;5054886;28;20021;-74
2023/09/25 03:15:08;;;;;;;4.00;1.95;;;14.70;82.10;;;;;;5072669;28;20048;-75
2023/09/25 03:17:35;;;;;;;2.80;1.90;;;14.60;82.20;;;;;;5055447;28;20028;-75
2023/09/25 03:20:12;;;;;;;4.07;1.70;;;14.70;82.30;;;;;;5054940;28;20029;-75
2023/09/25 03:22:38;;;;;;;3.00;1.63;;;14.70;82.40;;;;;;5072657;28;20032;-76
2023/09/25 03:25:05;;;;;;;3.53;2.10;;;14.70;82.40;;;;;;5038494;28;20096;-75
2023/09/25 03:27:31;;;;;;;2.95;1.92;;;14.70;82.40;;;;;;5038684;28;20029;-75
2023/09/25 03:29:56;;;;;;;2.78;1.77;;;14.70;82.60;;;;;;5039618;28;20063;-76
2023/09/25 03:32:22;;;;;;;2.92;1.80;;;14.60;83.50;;;;;;5041912;28;20036;-75
2023/09/25 03:34:47;;;;;;;4.28;1.92;;;14.70;82.90;;;;;;5058563;28;20021;-75
2023/09/25 03:37:13;;;;;;;2.92;1.67;;;14.70;83.10;;;;;;5041896;28;20025;-76
2023/09/25 03:39:39;;;;;;;2.83;1.92;;;14.70;83.00;;;;;;5058549;28;20021;-76
2023/09/25 03:42:04;;;;;;;3.38;2.08;;;14.70;83.10;;;;;;5058495;28;20468;-76
2023/09/25 03:44:30;;;;;;;2.05;1.55;;;14.70;83.20;;;;;;5041861;28;20063;-75
2023/09/25 03:46:56;;;;;;;5.18;1.80;;;14.70;83.20;;;;;;5041741;28;20025;-75
2023/09/25 03:49:21;;;;;;;3.22;1.70;;;14.70;83.10;;;;;;5058194;28;20033;-75
2023/09/25 03:51:48;;;;;;;3.45;1.90;;;14.60;83.10;;;;;;5058199;28;20108;-76
2023/09/25 03:54:13;;;;;;;4.00;2.10;;;14.60;83.30;;;;;;5041361;28;20052;-75
2023/09/25 03:56:39;;;;;;;3.20;1.95;;;14.60;83.50;;;;;;5058273;28;20028;-75
2023/09/25 03:59:05;;;;;;;4.80;2.13;;;14.60;83.60;;;;;;5041532;28;20538;-76
2023/09/25 04:01:31;;;;;;;2.90;1.83;;;14.60;83.50;;;;;;5057974;28;20029;-76
2023/09/25 04:03:56;;;;;;;4.88;1.60;;;14.60;83.50;;;;;;5058073;28;20029;-76
2023/09/25 04:06:22;;;;;;;3.38;1.70;;;14.60;83.50;;;;;;5057998;28;20040;-76
2023/09/25 04:08:48;;;;;;;2.90;1.85;;;14.60;83.50;;;;;;5075529;28;20029;-76
2023/09/25 04:11:14;;;;;;;3.88;1.80;;;14.60;83.40;;;;;;5057794;28;20047;-76
2023/09/25 04:13:40;;;;;;;3.80;1.55;;;14.50;83.50;;;;;;5058019;28;20525;-76
2023/09/25 04:16:06;;;;;;;3.67;1.67;;;14.50;83.70;;;;;;5057808;28;20029;-75
2023/09/25 04:18:32;;;;;;;3.50;1.90;;;14.50;83.90;;;;;;5041205;28;20017;-76
2023/09/25 04:21:06;;;;;;;2.50;1.40;;;14.50;83.70;;;;;;5057631;28;20028;-76
2023/09/25 04:23:32;;;;;;;3.58;1.90;;;14.50;83.80;;;;;;5057584;28;20036;-76
2023/09/25 04:26:00;;;;;;;2.35;1.63;;;14.50;83.80;;;;;;5041317;28;20021;-76
2023/09/25 04:28:32;;;;;;;4.53;1.95;;;14.50;83.70;;;;;;5075145;28;20036;-76
2023/09/25 04:30:59;;;;;;;4.22;2.08;;;14.40;83.90;;;;;;5057737;28;20033;-75
2023/09/25 04:33:25;;;;;;;2.80;1.63;;;14.40;83.90;;;;;;5057297;28;20033;-76
2023/09/25 04:35:55;;;;;;;3.70;1.88;;;14.40;84.10;;;;;;5040712;28;20033;-75
2023/09/25 04:38:21;;;;;;;4.05;1.88;;;14.40;84.10;;;;;;5040666;28;20029;-76
2023/09/25 04:40:47;;;;;;;3.63;1.65;;;14.40;84.30;;;;;;5057231;28;20044;-76
2023/09/25 04:43:13;;;;;;;3.97;1.70;;;14.40;84.40;;;;;;5056762;28;20025;-76
2023/09/25 04:45:38;;;;;;;3.15;1.70;;;14.50;84.30;;;;;;5040617;28;20017;-76
2023/09/25 04:48:04;;;;;;;3.22;1.55;;;14.50;85.40;;;;;;5057308;28;20476;-76
2023/09/25 04:50:30;;;;;;;2.92;1.80;;;14.40;83.90;;;;;;5057161;28;20029;-76
2023/09/25 04:52:55;;;;;;;2.95;1.63;;;14.50;84.10;;;;;;5040290;28;20055;-76
2023/09/25 04:55:21;;;;;;;4.65;1.83;;;14.50;84.00;;;;;;5057231;28;20096;-76
2023/09/25 04:57:48;;;;;;;2.80;1.80;;;14.50;84.10;;;;;;5040397;28;20025;-75
2023/09/25 05:00:16;;;;;;;2.97;1.80;;;14.40;84.80;;;;;;5040494;28;20021;-75
2023/09/25 05:02:46;;;;;;;2.63;1.80;;;14.40;84.20;;;;;;5057022;28;20025;-75
2023/09/25 05:05:13;;;;;;;5.70;1.90;;;14.50;84.40;;;;;;5040254;28;20025;-75
2023/09/25 05:07:41;;;;;;;3.05;1.73;;;14.50;84.10;;;;;;5056927;28;20036;-75
2023/09/25 05:10:08;;;;;;;2.67;1.60;;;14.40;84.20;;;;;;5040517;28;20059;-75
2023/09/25 05:12:34;;;;;;;5.53;1.80;;;14.40;84.10;;;;;;5056856;28;20025;-76
2023/09/25 05:14:59;;;;;;;2.90;1.63;;;14.40;85.10;;;;;;5040017;28;20132;-75
2023/09/25 05:17:25;;;;;;;3.50;1.65;;;14.40;84.30;;;;;;5056533;28;20060;-75
2023/09/25 05:19:50;;;;;;;3.83;1.80;;;14.40;84.30;;;;;;5056776;28;20036;-75
2023/09/25 05:22:16;;;;;;;2.88;1.60;;;14.40;84.40;;;;;;5056504;28;20116;-75
2023/09/25 05:24:42;;;;;;;1.98;1.70;;;14.40;84.30;;;;;;5039974;28;20036;-75
2023/09/25 05:27:07;;;;;;;3.03;1.58;;;14.30;84.50;;;;;;5056360;28;20056;-75
2023/09/25 05:29:33;;;;;;;2.45;1.70;;;14.30;84.60;;;;;;5039819;28;20037;-76
2023/09/25 05:31:58;;;;;;;3.05;1.63;;;14.30;84.70;;;;;;5056154;28;20044;-75
2023/09/25 05:34:24;;;;;;;3.50;1.70;;;14.30;84.60;;;;;;5056185;28;20060;-76
2023/09/25 05:36:49;;;;;;;2.97;1.63;;;14.30;84.60;;;;;;5039807;28;20028;-76
2023/09/25 05:39:15;;;;;;;3.08;1.65;;;14.30;85.50;;;;;;5056280;28;20064;-76
2023/09/25 05:41:41;;;;;;;3.05;1.98;;;14.30;84.90;;;;;;5039565;28;20029;-76
2023/09/25 05:44:06;;;;;;;3.08;1.85;;;14.30;84.90;;;;;;5039650;28;20059;-76
2023/09/25 05:46:32;;;;;;;2.72;1.58;;;14.30;84.70;;;;;;5056043;28;20032;-76
2023/09/25 05:48:59;;;;;;;3.80;2.17;;;14.20;84.60;;;;;;5039603;28;20032;-76
2023/09/25 05:51:25;;;;;;;3.90;1.85;;;14.20;84.80;;;;;;5056369;28;20067;-77
2023/09/25 05:53:51;;;;;;;3.60;1.70;;;14.20;84.80;;;;;;5055674;28;20053;-76
2023/09/25 05:56:16;;;;;;;4.07;1.90;;;14.30;84.80;;;;;;5073473;28;20029;-76
2023/09/25 05:58:42;;;;;;;3.30;1.70;;;14.20;84.80;;;;;;5055949;28;20024;-75
2023/09/25 06:01:08;;;;;;;4.97;1.80;;;14.30;84.70;;;;;;5055828;28;20029;-76
2023/09/25 06:03:33;;;;;;;5.80;1.95;;;14.30;85.50;;;;;;5055954;28;20021;-76
2023/09/25 06:05:59;;;;;;;4.25;1.80;;;14.20;85.10;;;;;;5039264;28;20089;-76
2023/09/25 06:08:24;;;;;;;2.38;1.70;;;14.10;85.40;;;;;;5073353;28;20021;-75
2023/09/25 06:11:01;;;;;;;3.65;2.00;;;14.10;85.40;;;;;;5055710;28;20041;-76
2023/09/25 06:13:26;;;;;;;2.17;1.45;;;14.10;85.70;;;;;;5055725;28;20040;-76
2023/09/25 06:15:52;;;;;;;3.10;1.60;;;14.10;85.90;;;;;;5055740;28;20037;-76
2023/09/25 06:18:17;;;;;;;2.53;1.85;;;14.10;85.80;;;;;;5039051;28;20021;-76
2023/09/25 06:20:44;;;;;;;3.38;1.90;;;14.00;86.10;;;;;;5055656;28;20089;-76
2023/09/25 06:23:09;;;;;;;4.22;2.05;;;14.10;86.10;;;;;;5039109;28;20021;-76
2023/09/25 06:25:35;;;;;;;4.25;1.95;;;14.10;86.20;;;;;;5073102;28;20029;-76
2023/09/25 06:28:02;;;;;;;3.30;1.80;;;14.20;86.10;;;;;;5039008;28;20087;-76
2023/09/25 06:30:30;;;;;;;4.22;2.20;;;14.20;85.80;;;;;;5073083;28;20021;-76
2023/09/25 06:32:55;;;;;;;3.95;2.05;;;14.20;85.90;;;;;;5039175;28;20056;-76
2023/09/25 06:35:21;;;;;;;2.80;1.83;;;14.20;86.10;;;;;;5038874;28;20021;-76
2023/09/25 06:37:47;;;;;;;3.45;1.80;;;14.30;86.30;;;;;;5055466;28;20021;-76
2023/09/25 06:40:15;;;;;;;2.90;2.00;;;14.30;86.90;;;;;;5055599;28;20051;-75
2023/09/25 06:42:42;;;;;;;7.75;2.20;;;14.30;85.90;;;;;;5055445;28;20045;-76
2023/09/25 06:45:08;;;;;;;3.72;2.10;;;14.30;86.10;;;;;;5055569;28;20021;-76
2023/09/25 06:47:34;;;;;;;4.10;2.20;;;14.30;85.80;;;;;;5038853;28;20025;-75
2023/09/25 06:50:00;;;;;;;6.90;2.10;;;14.40;85.90;;;;;;5038888;28;20025;-76
2023/09/25 06:52:25;;;;;;;4.85;2.33;;;14.40;86.20;;;;;;5055317;28;20037;-76
2023/09/25 06:54:51;;;;;;;5.50;2.20;;;14.40;87.30;;;;;;5038544;28;20053;-76
2023/09/25 06:57:17;;;;;;;5.57;2.10;;;14.40;86.70;;;;;;5055264;28;20025;-75
2023/09/25 06:59:42;;;;;;;3.63;1.90;;;14.40;86.90;;;;;;5055108;28;20064;-75
2023/09/25 07:02:08;;;;;;;5.32;2.22;;;14.50;86.80;;;;;;5055216;28;20037;-76
2023/09/25 07:04:33;;;;;;;5.10;2.05;;;14.50;86.80;;;;;;5055834;28;20059;-75
2023/09/25 07:06:59;;;;;;;3.47;2.13;;;14.60;87.00;;;;;;5042452;28;20092;-75
2023/09/25 07:09:25;;;;;;;3.80;2.15;;;14.60;86.90;;;;;;5059074;28;20029;-75
2023/09/25 07:11:50;;;;;;;6.03;2.55;;;14.60;87.00;;;;;;5058894;28;20029;-74
2023/09/25 07:14:16;;;;;;;5.45;2.50;;;14.60;86.20;;;;;;5076699;28;20025;-75
2023/09/25 07:16:41;;;;;;;5.97;2.90;;;14.70;86.00;;;;;;5042321;28;20040;-75
2023/09/25 07:19:08;;;;;;;4.18;2.60;;;14.80;86.40;;;;;;5042332;28;20025;-74
2023/09/25 07:21:35;;;;;;;5.35;2.47;;;14.80;86.30;;;;;;5042329;28;20108;-75
2023/09/25 07:24:01;;;;;;;5.10;2.65;;;14.80;86.50;;;;;;5058725;28;20049;-74
2023/09/25 07:26:27;;;;;;;6.45;3.08;;;14.90;85.90;;;;;;5076438;28;20037;-74
2023/09/25 07:28:52;;;;;;;4.38;2.75;;;14.90;85.80;;;;;;5058760;28;20021;-74
2023/09/25 07:31:26;;;;;;;4.68;2.75;;;15.00;84.80;;;;;;5058549;28;20029;-74
2023/09/25 07:33:55;;;;;;;5.05;2.88;;;15.00;85.00;;;;;;5059265;28;20021;-74
2023/09/25 07:36:21;;;;;;;5.72;2.80;;;15.20;85.60;;;;;;5076143;28;20095;-74
2023/09/25 07:38:47;;;;;;;6.13;3.22;;;15.20;85.50;;;;;;5058476;28;20025;-75
2023/09/25 07:41:13;;;;;;;9.00;4.28;;;15.30;85.00;;;;;;5058610;28;20039;-76
2023/09/25 07:43:39;;;;;;;8.25;3.85;;;15.50;85.00;;;;;;5041816;28;20054;-76
2023/09/25 07:46:05;;;;;;;8.85;5.18;;;15.50;84.70;;;;;;5075979;28;20051;-75
2023/09/25 07:48:31;;;;;;;12.50;6.10;;;15.70;83.50;;;;;;5058467;28;20044;-76
2023/09/25 07:50:58;;;;;;;16.25;7.18;;;15.80;84.10;;;;;;5075775;28;20032;-75
2023/09/25 07:53:24;;;;;;;14.02;6.65;;;15.80;83.40;;;;;;5075622;28;20049;-76
2023/09/25 07:55:53;;;;;;;20.90;10.77;;;15.90;83.00;;;;;;5058030;28;20035;-76
2023/09/25 07:58:19;;;;;;;16.33;9.57;;;15.90;83.80;;;;;;5058019;28;20070;-75
2023/09/25 08:00:46;;;;;;;14.88;6.38;;;16.10;82.70;;;;;;5075672;28;20045;-76
2023/09/25 08:03:17;;;;;;;9.57;5.85;;;16.10;82.30;;;;;;5075568;28;20032;-76
2023/09/25 08:05:43;;;;;;;8.48;5.15;;;16.20;82.10;;;;;;5042350;28;20033;-75
2023/09/25 08:08:12;;;;;;;9.02;4.95;;;16.20;81.60;;;;;;5058086;28;20028;-76
2023/09/25 08:10:44;;;;;;;7.82;4.43;;;16.10;81.90;;;;;;5075468;28;20045;-76
2023/09/25 08:13:10;;;;;;;7.80;3.95;;;16.20;81.00;;;;;;5057792;28;20048;-75
2023/09/25 08:15:36;;;;;;;6.93;4.13;;;16.30;80.90;;;;;;5074867;28;20032;-75
2023/09/25 08:18:02;;;;;;;7.70;4.13;;;16.30;80.70;;;;;;5056884;28;20079;-75
2023/09/25 08:20:28;;;;;;;8.45;4.25;;;16.40;80.00;;;;;;5041080;28;20021;-76
2023/09/25 08:22:54;;;;;;;9.55;5.60;;;16.50;80.70;;;;;;5057693;28;20025;-76
2023/09/25 08:25:21;;;;;;;10.88;5.57;;;16.60;81.40;;;;;;5041092;28;20056;-76
2023/09/25 08:27:48;;;;;;;11.43;6.20;;;16.50;80.40;;;;;;5075167;28;20404;-76
2023/09/25 08:30:16;;;;;;;10.60;5.85;;;16.60;81.80;;;;;;5057483;28;20101;-76
2023/09/25 08:32:42;;;;;;;13.27;7.28;;;16.60;81.00;;;;;;5041157;28;20029;-76
2023/09/25 08:35:09;;;;;;;13.20;7.40;;;16.70;80.60;;;;;;5074982;28;20041;-76
2023/09/25 08:37:36;;;;;;;10.43;5.95;;;16.80;81.10;;;;;;5041129;28;20025;-75
2023/09/25 08:40:02;;;;;;;9.48;5.32;;;16.80;80.40;;;;;;5075001;28;20028;-75
2023/09/25 08:42:28;;;;;;;10.02;5.90;;;16.90;79.80;;;;;;5057459;28;20024;-75
2023/09/25 08:44:59;;;;;;;11.23;6.18;;;17.00;79.90;;;;;;5057243;28;20025;-76
2023/09/25 08:47:25;;;;;;;9.45;5.43;;;17.00;80.20;;;;;;5074844;28;20076;-76
2023/09/25 08:49:52;;;;;;;9.18;5.63;;;17.00;78.70;;;;;;5040542;28;20075;-76
2023/09/25 08:52:21;;;;;;;10.68;4.90;;;17.10;79.60;;;;;;5057046;28;20534;-76
2023/09/25 08:54:50;;;;;;;10.73;4.93;;;17.20;79.10;;;;;;5056847;28;20063;-76
2023/09/25 08:57:16;;;;;;;7.15;4.03;;;17.20;80.00;;;;;;5040964;28;20025;-76
2023/09/25 08:59:46;;;;;;;8.77;4.20;;;17.30;79.60;;;;;;5074581;28;20022;-75
2023/09/25 09:02:12;;;;;;;8.38;4.13;;;17.30;79.40;;;;;;5056875;28;20048;-76
2023/09/25 09:04:38;;;;;;;6.40;4.18;;;17.40;80.40;;;;;;5056806;28;20051;-75
2023/09/25 09:07:05;;;;;;;6.47;3.83;;;17.40;80.20;;;;;;5056860;28;20033;-75
2023/09/25 09:09:31;;;;;;;6.65;3.53;;;17.60;79.40;;;;;;5074369;28;20029;-75
2023/09/25 09:11:58;;;;;;;7.25;3.90;;;17.60;78.50;;;;;;5056565;28;20036;-76
2023/09/25 09:14:42;;;;;;;7.07;3.40;;;17.60;79.00;;;;;;5056647;28;20047;-76
2023/09/25 09:17:09;;;;;;;5.88;2.97;;;17.70;79.50;;;;;;5074214;28;20085;-76
2023/09/25 09:19:47;;;;;;;6.43;3.33;;;17.70;78.60;;;;;;5056570;28;20025;-75
2023/09/25 09:22:16;;;;;;;5.97;2.50;;;17.80;80.00;;;;;;5074135;28;20049;-75
2023/09/25 09:24:43;;;;;;;3.92;2.30;;;17.90;79.40;;;;;;5056398;28;20033;-75
2023/09/25 09:27:09;;;;;;;5.70;2.95;;;17.90;78.80;;;;;;5055963;28;20021;-75
2023/09/25 09:29:43;;;;;;;5.47;2.13;;;18.10;78.40;;;;;;5073902;28;20049;-75
2023/09/25 09:32:10;;;;;;;5.85;2.40;;;18.10;79.80;;;;;;5056165;28;20083;-75
2023/09/25 09:34:38;;;;;;;3.35;2.20;;;18.10;77.70;;;;;;5073822;28;20021;-75
2023/09/25 09:37:09;;;;;;;3.50;2.08;;;18.10;78.30;;;;;;5056461;28;20021;-75
2023/09/25 09:39:36;;;;;;;3.58;2.03;;;18.20;78.60;;;;;;5073838;28;20025;-75
2023/09/25 09:42:05;;;;;;;4.60;2.33;;;18.20;78.70;;;;;;5073804;28;20031;-76
2023/09/25 09:44:31;;;;;;;6.10;2.78;;;18.30;78.80;;;;;;5056015;28;20085;-75
2023/09/25 09:46:59;;;;;;;5.18;1.83;;;18.40;79.00;;;;;;5056110;28;20033;-76
2023/09/25 09:49:25;;;;;;;4.32;2.60;;;18.40;77.50;;;;;;5056051;28;20112;-75
2023/09/25 09:51:51;;;;;;;3.17;2.28;;;18.40;80.00;;;;;;5039500;28;20025;-75
2023/09/25 09:54:19;;;;;;;4.78;2.00;;;18.50;77.00;;;;;;5073374;28;20055;-75
2023/09/25 09:56:48;;;;;;;4.22;2.40;;;18.50;77.70;;;;;;5073561;28;20025;-75
2023/09/25 09:59:15;;;;;;;4.90;2.10;;;18.60;76.80;;;;;;5073461;28;20475;-76
2023/09/25 10:01:43;;;;;;;4.45;2.25;;;18.60;77.00;;;;;;5073457;28;20025;-75
2023/09/25 10:04:10;;;;;;;3.85;1.90;;;18.70;77.10;;;;;;5073581;28;20025;-75
2023/09/25 10:06:43;;;;;;;5.47;2.67;;;18.70;76.50;;;;;;5073438;28;20088;-75
2023/09/25 10:09:11;;;;;;;5.47;3.28;;;18.60;75.10;;;;;;5073359;28;20021;-75
2023/09/25 10:11:37;;;;;;;4.32;3.08;;;18.70;76.50;;;;;;5073251;28;20072;-75
2023/09/25 10:14:07;;;;;;;5.72;2.92;;;18.70;76.00;;;;;;5073292;28;20032;-75
2023/09/25 10:17:05;;;;;;;3.00;1.90;;;18.70;75.50;;;;;;5056442;28;20025;-76
2023/09/25 10:19:40;;;;;;;4.80;2.80;;;18.70;75.80;;;;;;5073227;28;20092;-75
2023/09/25 10:22:16;;;;;;;6.43;2.78;;;18.80;76.60;;;;;;5055523;28;20029;-75
2023/09/25 10:24:42;;;;;;;6.38;2.35;;;18.80;76.50;;;;;;5055523;28;20045;-75
2023/09/25 10:27:10;;;;;;;4.40;2.10;;;18.80;77.50;;;;;;5073143;28;20029;-74
2023/09/25 10:29:36;;;;;;;3.58;2.08;;;19.00;76.40;;;;;;5073113;28;20033;-75
2023/09/25 10:32:03;;;;;;;6.03;2.30;;;19.10;76.40;;;;;;5055555;28;20040;-75
2023/09/25 10:34:31;;;;;;;3.97;1.95;;;19.10;76.80;;;;;;5055404;28;20021;-75
2023/09/25 10:37:00;;;;;;;4.70;2.10;;;19.20;76.80;;;;;;5055374;28;20025;-75
2023/09/25 10:39:28;;;;;;;5.13;2.17;;;19.30;76.80;;;;;;5073384;28;20020;-76
2023/09/25 10:42:07;;;;;;;7.55;2.05;;;19.30;75.40;;;;;;5043000;28;20025;-75
2023/09/25 10:44:36;;;;;;;4.88;1.98;;;19.30;75.70;;;;;;5077165;28;20031;-75
2023/09/25 10:47:09;;;;;;;4.25;2.40;;;19.20;75.80;;;;;;5077111;28;20047;-75
2023/09/25 10:49:35;;;;;;;5.35;2.10;;;19.30;76.10;;;;;;5059446;28;20024;-75
2023/09/25 10:52:03;;;;;;;4.93;2.00;;;19.40;76.00;;;;;;5059417;28;20097;-75
2023/09/25 10:54:29;;;;;;;4.45;2.50;;;19.50;76.40;;;;;;5059346;28;20052;-75
2023/09/25 10:56:54;;;;;;;2.80;1.85;;;19.60;75.40;;;;;;5042728;28;20033;-74
2023/09/25 10:59:20;;;;;;;5.00;2.33;;;19.60;75.20;;;;;;5059351;28;20045;-75
2023/09/25 11:01:48;;;;;;;2.83;1.90;;;19.70;75.10;;;;;;5059246;28;20029;-75
2023/09/25 11:04:13;;;;;;;3.08;1.90;;;19.70;74.40;;;;;;5076751;28;20025;-75
2023/09/25 11:06:39;;;;;;;4.10;2.30;;;19.90;76.20;;;;;;5059091;28;20040;-75
2023/09/25 11:09:05;;;;;;;2.95;2.10;;;19.90;75.40;;;;;;5042565;28;20033;-75
2023/09/25 11:11:32;;;;;;;5.20;1.90;;;20.00;75.40;;;;;;5058942;28;20036;-75
2023/09/25 11:13:58;;;;;;;3.88;2.03;;;20.10;75.00;;;;;;5076746;28;20044;-76
2023/09/25 11:16:25;;;;;;;6.90;2.10;;;20.10;74.80;;;;;;5058850;28;20013;-75
2023/09/25 11:19:05;;;;;;;5.03;2.15;;;20.20;73.80;;;;;;5058805;28;20044;-75
2023/09/25 11:21:31;;;;;;;4.07;1.42;;;20.20;74.40;;;;;;5058935;28;20440;-75
2023/09/25 11:23:57;;;;;;;3.28;1.75;;;20.30;72.90;;;;;;5058934;28;20032;-75
2023/09/25 11:26:26;;;;;;;3.00;1.95;;;20.40;74.00;;;;;;5076286;28;20033;-75
2023/09/25 11:28:54;;;;;;;4.13;1.70;;;20.50;75.00;;;;;;5076238;28;20036;-75
2023/09/25 11:31:19;;;;;;;3.22;1.90;;;20.50;73.20;;;;;;5042086;28;20029;-76
2023/09/25 11:33:46;;;;;;;3.38;1.63;;;20.60;73.40;;;;;;5076187;28;20032;-74
2023/09/25 11:36:12;;;;;;;3.60;1.65;;;20.60;74.60;;;;;;5058823;28;20461;-75
2023/09/25 11:38:38;;;;;;;5.22;1.90;;;20.60;72.20;;;;;;5042038;28;20017;-76
2023/09/25 11:41:05;;;;;;;5.53;1.70;;;20.60;72.40;;;;;;5041962;28;20025;-76
2023/09/25 11:43:32;;;;;;;3.28;2.25;;;20.80;73.90;;;;;;5042135;28;20086;-75
2023/09/25 11:45:57;;;;;;;2.85;1.80;;;20.90;72.70;;;;;;5058396;28;20048;-76
2023/09/25 11:48:23;;;;;;;2.55;2.10;;;21.00;72.30;;;;;;5058303;28;20025;-76
2023/09/25 11:50:48;;;;;;;4.75;2.20;;;21.10;73.40;;;;;;5075625;28;20029;-77
2023/09/25 11:53:14;;;;;;;3.45;1.90;;;21.20;72.10;;;;;;5058003;28;20065;-77
2023/09/25 11:55:40;;;;;;;3.58;2.03;;;21.20;71.70;;;;;;5075822;28;20045;-77
2023/09/25 11:58:08;;;;;;;3.72;2.00;;;21.20;70.60;;;;;;5058196;28;20084;-77
2023/09/25 12:00:34;;;;;;;4.82;2.30;;;21.20;71.70;;;;;;5042011;28;20032;-77
2023/09/25 12:03:02;;;;;;;4.55;2.60;;;21.10;69.70;;;;;;5041536;28;20033;-77
2023/09/25 12:05:28;;;;;;;4.80;2.42;;;21.20;72.30;;;;;;5057905;28;20017;-76
2023/09/25 12:07:54;;;;;;;5.00;2.10;;;21.30;72.60;;;;;;5058125;28;20085;-76
2023/09/25 12:10:19;;;;;;;3.50;1.90;;;21.30;71.40;;;;;;5041285;28;20032;-76
2023/09/25 12:12:47;;;;;;;4.47;2.55;;;21.40;71.70;;;;;;5041331;28;20029;-77
2023/09/25 12:15:14;;;;;;;5.00;2.92;;;21.40;72.50;;;;;;5041477;28;20021;-77
2023/09/25 12:17:39;;;;;;;6.75;2.53;;;21.50;71.20;;;;;;5057966;28;20033;-77
2023/09/25 12:20:14;;;;;;;4.05;2.40;;;21.50;72.10;;;;;;5075338;28;20032;-77
2023/09/25 12:22:45;;;;;;;3.95;2.33;;;21.50;72.00;;;;;;5075308;28;20036;-77
2023/09/25 12:25:12;;;;;;;4.78;2.80;;;21.50;71.90;;;;;;5057781;28;20108;-76
2023/09/25 12:27:39;;;;;;;6.72;3.08;;;21.40;71.50;;;;;;5075112;28;20491;-76
2023/09/25 12:30:07;;;;;;;4.25;2.25;;;21.50;73.00;;;;;;5057543;28;20085;-76
2023/09/25 12:32:34;;;;;;;4.00;2.38;;;21.50;72.50;;;;;;5075008;28;20059;-76
2023/09/25 12:35:00;;;;;;;4.28;2.30;;;21.60;72.10;;;;;;5040936;28;20051;-75
2023/09/25 12:37:25;;;;;;;5.60;2.90;;;21.50;72.80;;;;;;5057467;28;20021;-76
2023/09/25 12:39:51;;;;;;;4.32;2.45;;;21.60;73.00;;;;;;5057379;28;20071;-76
2023/09/25 12:42:19;;;;;;;4.68;2.95;;;21.60;73.00;;;;;;5040713;28;20036;-75